Seligman, AZ (86337)

12:21 PM MST del 16 Gennaio 2017 (GMT -0700)
W7RH Westwood Ranch | | Change Station

Alt. 5912 ft 35.40 °N, 112.66 °W | Updated 14 minutes ago

Parzialmente nuvoloso
Parzialmente nuvoloso
40.7 °F
Sembra 41 °F
N
2.0
Vento Variabile Vento da NE

Oggi
Massima -- | Minima -- °F
--% Possibilità di precip.
Ieri
Massima -- | Minima -- °F
Precip. -- in
Pressione 30.05 in
Visibilità 10.0 miglia
Nuvole Alcuni 2200 ft
Nubi sparse 2800 ft
Coperto 3600 ft
Raffreddamento del vento 41 °F
Punto di rugiada 33 °F
Umidità 75%
Piovosità 0.00 in
Spessore del manto nevoso Non disponibile.
7:39 AM 5:43 PM
Gobba a levante, 79% visible
METAR KCMR 161915Z AUTO 16003G10KT 10SM FEW022 SCT028 OVC036 05/M01 A3005 RMK AO2
Pressione 30.05 in
Visibilità 10.0 miglia
Nuvole Alcuni 2200 ft
Nubi sparse 2800 ft
Coperto 3600 ft
Raffreddamento del vento 41 °F
Punto di rugiada 33 °F
Umidità 75%
Piovosità 0.00 in
Spessore del manto nevoso Non disponibile.
7:39 AM 5:43 PM
Gobba a levante, 79% visible
METAR KCMR 161915Z AUTO 16003G10KT 10SM FEW022 SCT028 OVC036 05/M01 A3005 RMK AO2

Get Your Daily Forecast Email!

Thanks for signing up!

Be on the lookout for a verification email in your inbox.

You'll start receiving the daily forecast at 8 AM.

×

10-Day Weather Forecast

Almanac

Astronomia

Jan. 16, 2017 Alba Tramonto
Ora attuale
Crepuscolo civile
Crepuscolo nautico
Crepuscolo astronomico
Luna
Estensione della luce visibile
Lunghezza del giorno
Tomorrow will be .
, % of the Moon is Illuminated

Gli estremi di oggi

State Highs State Lows

Community

WunderPhotos

Upload Photos

1,962,540 foto caricate!

WunderBlog® & News

Nearby

Qualità dell'aria

  Qualità dell'aria Indice AQ Inquinante
Not available.

Profondità neve

Stazione Profondità Altitudine

Attività sismica

Città  Distanza Mag. Data & Ora
Minimo Magnitudo Mostrato è 2.5.

Temperature delle acque costiere

Località Temperatura

Stations

Stazioni meteo nelle vicinanze

Ubicazione della stazione Temp. Raffreddamento del vento Punto di rugiada Umidità Vento Precip. Alt. Aggiornato Tipo
                   

Watches & Warnings

There are currently no watches in effect.